createdAt,value
2023-04-21T00:01:42.263Z,36.07
2023-04-21T00:04:13.574Z,36.06
2023-04-21T00:06:44.491Z,36.33
2023-04-21T00:09:12.460Z,36.33
2023-04-21T00:11:40.613Z,36.10
2023-04-21T00:14:08.725Z,36.08
2023-04-21T00:16:36.813Z,36.06
2023-04-21T00:19:07.016Z,36.06
2023-04-21T00:21:35.776Z,36.17
2023-04-21T00:24:05.819Z,36.15
2023-04-21T00:26:33.822Z,36.03
2023-04-21T00:29:01.737Z,36.34
2023-04-21T00:31:29.717Z,36.41
2023-04-21T00:33:57.708Z,36.06
2023-04-21T00:36:28.214Z,36.20
2023-04-21T00:38:56.216Z,36.03
2023-04-21T00:41:25.529Z,36.32
2023-04-21T00:44:02.853Z,36.49
2023-04-21T00:46:30.912Z,36.30
2023-04-21T00:48:59.086Z,36.51
2023-04-21T00:51:27.734Z,36.20
2023-04-21T00:53:55.724Z,36.49
2023-04-21T00:56:25.073Z,36.07
2023-04-21T00:58:53.042Z,36.55
2023-04-21T01:01:21.097Z,36.24
2023-04-21T01:03:50.508Z,36.17
2023-04-21T01:06:18.824Z,36.58
2023-04-21T01:08:46.981Z,36.40
2023-04-21T01:11:14.962Z,36.40
2023-04-21T01:13:44.445Z,36.46
2023-04-21T01:16:16.992Z,36.31
2023-04-21T01:18:45.058Z,36.25
2023-04-21T01:21:13.182Z,36.30
2023-04-21T01:23:42.784Z,36.43
2023-04-21T01:26:10.949Z,36.25
2023-04-21T01:28:39.032Z,36.25
2023-04-21T01:31:07.015Z,36.30
2023-04-21T01:33:35.058Z,36.27
2023-04-21T01:36:03.039Z,36.29
2023-04-21T01:38:31.159Z,36.59
2023-04-21T01:41:00.548Z,36.51
2023-04-21T01:43:28.594Z,36.70
2023-04-21T01:45:56.607Z,36.43
2023-04-21T01:48:24.538Z,36.41
2023-04-21T01:50:52.566Z,36.32
2023-04-21T01:53:20.736Z,36.36
2023-04-21T01:55:48.737Z,36.19
2023-04-21T01:58:18.039Z,36.60
2023-04-21T02:00:46.065Z,36.23
2023-04-21T02:03:14.216Z,36.54
2023-04-21T02:05:42.340Z,36.55
2023-04-21T02:08:10.320Z,36.44
2023-04-21T02:10:38.266Z,36.71
2023-04-21T02:13:06.220Z,36.42
2023-04-21T02:15:35.714Z,36.63
2023-04-21T02:18:03.718Z,36.63
2023-04-21T02:20:31.721Z,36.50
2023-04-21T02:22:59.713Z,36.74
2023-04-21T02:25:28.233Z,36.57
2023-04-21T02:27:56.230Z,36.72
2023-04-21T02:30:24.200Z,36.39
2023-04-21T02:32:53.631Z,36.51
2023-04-21T02:35:21.861Z,36.81
2023-04-21T02:37:49.866Z,36.36
2023-04-21T02:40:17.894Z,36.54
2023-04-21T02:42:45.808Z,36.50
2023-04-21T02:45:13.741Z,36.62
2023-04-21T02:47:41.813Z,36.62
2023-04-21T02:50:12.187Z,36.38
2023-04-21T02:52:40.182Z,36.55
2023-04-21T02:55:08.922Z,36.67
2023-04-21T02:57:36.920Z,36.36
2023-04-21T03:00:07.485Z,36.62
2023-04-21T03:02:36.267Z,36.59
2023-04-21T03:05:04.489Z,36.62
2023-04-21T03:07:33.908Z,36.72
2023-04-21T03:10:01.935Z,36.77
2023-04-21T03:12:29.963Z,36.41
2023-04-21T03:14:58.006Z,36.81
2023-04-21T03:17:26.190Z,36.54
2023-04-21T03:19:54.286Z,36.67
2023-04-21T03:22:22.303Z,36.63
2023-04-21T03:24:51.737Z,36.44
2023-04-21T03:27:19.799Z,36.50
2023-04-21T03:29:47.873Z,36.41
2023-04-21T03:32:15.989Z,36.36
2023-04-21T03:34:44.006Z,36.41
2023-04-21T03:37:11.906Z,36.52
2023-04-21T03:39:39.967Z,36.58
2023-04-21T03:42:09.351Z,36.51
2023-04-21T03:44:37.380Z,36.34
2023-04-21T03:47:05.516Z,36.22
2023-04-21T03:49:35.309Z,36.57
2023-04-21T03:52:03.365Z,36.35
2023-04-21T03:54:31.490Z,36.18
2023-04-21T03:56:59.504Z,36.07
2023-04-21T03:59:28.946Z,36.20
2023-04-21T04:01:57.075Z,36.41
2023-04-21T04:04:25.362Z,36.11
2023-04-21T04:06:53.476Z,36.17
2023-04-21T04:09:21.661Z,36.32
2023-04-21T04:11:49.748Z,36.44
2023-04-21T04:14:17.811Z,36.25
2023-04-21T04:16:47.119Z,36.39
2023-04-21T04:19:16.280Z,36.04
2023-04-21T04:21:44.264Z,36.44
2023-04-21T04:24:14.175Z,36.00
2023-04-21T04:26:42.842Z,36.34
2023-04-21T04:29:11.612Z,35.94
2023-04-21T04:31:39.703Z,36.05
2023-04-21T04:34:09.787Z,36.06
2023-04-21T04:36:37.752Z,35.96
2023-04-21T04:39:07.222Z,36.07
2023-04-21T04:41:36.500Z,35.93
2023-04-21T04:44:05.128Z,36.31
2023-04-21T04:46:33.172Z,36.05
2023-04-21T04:49:01.735Z,35.87
2023-04-21T04:51:32.529Z,36.02
2023-04-21T04:54:00.481Z,36.08
2023-04-21T04:56:28.638Z,36.09
2023-04-21T04:58:56.849Z,36.12
2023-04-21T05:01:30.327Z,35.85
2023-04-21T05:03:58.656Z,35.99
2023-04-21T05:06:28.577Z,35.80
2023-04-21T05:08:57.976Z,35.95
2023-04-21T05:11:26.018Z,35.90
2023-04-21T05:13:54.156Z,35.88
2023-04-21T05:16:22.243Z,36.02
2023-04-21T05:18:51.175Z,36.08
2023-04-21T05:21:25.064Z,36.04
2023-04-21T05:23:53.008Z,35.76
2023-04-21T05:26:22.327Z,36.11
2023-04-21T05:28:50.350Z,35.71
2023-04-21T05:31:18.364Z,35.61
2023-04-21T05:33:46.356Z,35.66
2023-04-21T05:36:14.376Z,35.63
2023-04-21T05:38:42.345Z,35.53
2023-04-21T05:41:10.253Z,35.95
2023-04-21T05:43:39.701Z,35.79
2023-04-21T05:46:10.360Z,35.68
2023-04-21T05:48:38.631Z,36.14
2023-04-21T05:51:10.495Z,35.80
2023-04-21T05:53:38.761Z,35.75
2023-04-21T05:56:08.163Z,36.31
2023-04-21T05:58:36.227Z,36.00
2023-04-21T06:01:06.394Z,36.25
2023-04-21T06:03:34.742Z,36.11
2023-04-21T06:06:03.720Z,35.88
2023-04-21T06:08:31.810Z,36.24
2023-04-21T06:10:59.813Z,35.87
2023-04-21T06:13:27.869Z,36.15
2023-04-21T06:15:56.055Z,36.25
2023-04-21T06:18:25.577Z,35.97
2023-04-21T06:20:53.724Z,35.99
2023-04-21T06:23:21.695Z,36.08
2023-04-21T06:25:49.894Z,36.06
2023-04-21T06:28:17.969Z,36.18
2023-04-21T06:30:46.034Z,36.31
2023-04-21T06:33:13.976Z,36.12
2023-04-21T06:35:43.613Z,36.13
2023-04-21T06:38:11.552Z,36.46
2023-04-21T06:40:39.473Z,36.57
2023-04-21T06:43:07.590Z,36.66
2023-04-21T06:45:35.594Z,36.54
2023-04-21T06:48:03.675Z,36.72
2023-04-21T06:50:31.597Z,36.31
2023-04-21T06:53:01.057Z,36.54
2023-04-21T06:55:29.167Z,36.71
2023-04-21T06:57:57.116Z,36.58
2023-04-21T07:00:25.212Z,36.42
2023-04-21T07:02:59.309Z,36.29
2023-04-21T07:05:27.470Z,36.39
2023-04-21T07:07:59.633Z,36.60
2023-04-21T07:10:29.400Z,36.37
2023-04-21T07:12:57.345Z,36.05
2023-04-21T07:15:25.378Z,36.47
2023-04-21T07:18:05.425Z,36.14
2023-04-21T07:20:33.518Z,36.09
2023-04-21T07:23:01.578Z,36.39
2023-04-21T07:25:31.151Z,36.14
2023-04-21T07:27:59.102Z,36.17
2023-04-21T07:30:27.174Z,36.00
2023-04-21T07:32:55.170Z,36.33
2023-04-21T07:35:23.296Z,36.27
2023-04-21T07:37:51.284Z,36.19
2023-04-21T07:40:19.188Z,36.04
2023-04-21T07:42:48.590Z,36.27
2023-04-21T07:45:16.525Z,35.84
2023-04-21T07:47:44.595Z,35.88
2023-04-21T07:50:12.756Z,35.88
2023-04-21T07:52:41.355Z,35.88
2023-04-21T07:55:09.700Z,36.12
2023-04-21T07:57:38.659Z,36.12
2023-04-21T08:00:09.536Z,35.65
2023-04-21T08:02:37.960Z,35.84
2023-04-21T08:05:06.491Z,35.98
2023-04-21T08:07:34.593Z,35.92
2023-04-21T08:10:02.881Z,35.77
2023-04-21T08:12:30.777Z,36.05
2023-04-21T08:14:58.877Z,35.93
2023-04-21T08:17:28.363Z,35.87
2023-04-21T08:19:57.970Z,35.68
2023-04-21T08:22:27.553Z,35.81
2023-04-21T08:24:55.553Z,35.80
2023-04-21T08:27:23.614Z,35.58
2023-04-21T08:29:51.807Z,36.27
2023-04-21T08:32:23.660Z,36.33
2023-04-21T08:34:53.324Z,36.90
2023-04-21T08:37:21.530Z,36.74
2023-04-21T08:39:50.914Z,36.10
2023-04-21T08:42:18.995Z,36.05
2023-04-21T08:44:47.220Z,35.91
2023-04-21T08:47:15.814Z,35.85
2023-04-21T08:49:45.331Z,35.91
2023-04-21T08:52:15.062Z,35.99
2023-04-21T08:54:43.150Z,36.10
2023-04-21T08:57:15.635Z,35.81
2023-04-21T08:59:44.125Z,35.82
2023-04-21T09:02:12.733Z,36.45
2023-04-21T09:04:41.574Z,36.27
2023-04-21T09:07:10.310Z,37.04
2023-04-21T09:09:55.236Z,35.33
2023-04-21T09:12:22.986Z,34.20
2023-04-21T09:14:51.390Z,35.39
2023-04-21T09:17:19.775Z,35.77
2023-04-21T09:19:47.943Z,35.27
2023-04-21T09:22:16.710Z,34.67
2023-04-21T09:24:48.149Z,35.03
2023-04-21T09:27:18.241Z,34.98
2023-04-21T09:29:49.537Z,34.54
2023-04-21T09:32:20.555Z,34.65
2023-04-21T09:34:48.633Z,34.68
2023-04-21T09:37:18.768Z,34.54
2023-04-21T09:40:03.542Z,34.59
2023-04-21T09:42:37.859Z,34.49
2023-04-21T09:45:32.429Z,34.76
2023-04-21T09:47:58.807Z,34.53
2023-04-21T09:50:54.822Z,34.37
2023-04-21T09:53:16.574Z,34.43
2023-04-21T09:55:44.633Z,34.24
2023-04-21T09:58:15.521Z,34.54
2023-04-21T10:00:43.480Z,34.30
2023-04-21T10:03:12.315Z,33.95
2023-04-21T10:05:42.798Z,34.42
2023-04-21T10:08:12.515Z,34.02
2023-04-21T10:10:40.589Z,35.59
2023-04-21T10:13:09.004Z,35.79
2023-04-21T10:15:39.854Z,36.31
2023-04-21T10:18:15.255Z,35.19
2023-04-21T10:20:54.194Z,34.94
2023-04-21T10:23:32.555Z,34.80
2023-04-21T10:26:04.704Z,34.65
2023-04-21T10:28:48.429Z,34.61
2023-04-21T10:31:30.664Z,34.50
2023-04-21T10:34:17.421Z,34.88
2023-04-21T10:37:07.644Z,34.55
2023-04-21T10:39:36.729Z,34.92
2023-04-21T10:42:22.907Z,34.44
2023-04-21T10:45:04.043Z,34.82
2023-04-21T10:47:38.120Z,34.75
2023-04-21T10:50:13.818Z,34.69
2023-04-21T10:52:44.661Z,34.77
2023-04-21T10:55:15.671Z,34.55
2023-04-21T10:57:45.433Z,34.80
2023-04-21T11:00:16.578Z,35.02
2023-04-21T11:02:46.252Z,34.75
2023-04-21T11:05:14.371Z,34.71
2023-04-21T11:07:42.373Z,34.72
2023-04-21T11:10:11.934Z,34.90
2023-04-21T11:12:40.907Z,34.73
2023-04-21T11:15:10.136Z,34.93
2023-04-21T11:17:39.307Z,34.71
2023-04-21T11:20:10.131Z,34.52
2023-04-21T11:22:38.440Z,34.83
2023-04-21T11:25:07.575Z,34.67
2023-04-21T11:27:35.573Z,34.44
2023-04-21T11:30:05.864Z,34.31
2023-04-21T11:32:35.069Z,34.48
2023-04-21T11:35:04.823Z,34.25
2023-04-21T11:37:34.249Z,34.27
2023-04-21T11:40:03.348Z,34.53
2023-04-21T11:42:31.385Z,34.13
2023-04-21T11:44:59.482Z,34.39
2023-04-21T11:47:28.846Z,34.30
2023-04-21T11:49:57.484Z,34.39
2023-04-21T11:52:26.443Z,34.37
2023-04-21T11:54:59.982Z,34.43
2023-04-21T11:57:28.467Z,34.10
2023-04-21T11:59:59.124Z,34.37
2023-04-21T12:02:28.084Z,34.01
2023-04-21T12:05:01.257Z,33.97
2023-04-21T12:07:31.198Z,33.90
2023-04-21T12:10:01.119Z,33.90
2023-04-21T12:12:29.316Z,33.91
2023-04-21T12:14:57.344Z,33.78
2023-04-21T12:17:25.405Z,33.80
2023-04-21T12:19:53.481Z,33.72
2023-04-21T12:22:23.559Z,33.78
2023-04-21T12:24:51.530Z,33.89
2023-04-21T12:27:21.263Z,33.71
2023-04-21T12:29:49.324Z,33.96
2023-04-21T12:32:17.705Z,33.83
2023-04-21T12:34:45.900Z,33.48
2023-04-21T12:37:14.010Z,33.82
2023-04-21T12:39:42.218Z,33.63
2023-04-21T12:42:10.448Z,33.50
2023-04-21T12:44:40.230Z,33.66
2023-04-21T12:47:08.717Z,33.43
2023-04-21T12:49:36.777Z,33.56
2023-04-21T12:52:06.250Z,33.25
2023-04-21T12:54:34.562Z,33.25
2023-04-21T12:57:02.781Z,33.60
2023-04-21T12:59:31.050Z,33.56
2023-04-21T13:02:00.825Z,33.28
2023-04-21T13:04:29.394Z,33.35
2023-04-21T13:06:57.716Z,33.48
2023-04-21T13:09:25.735Z,33.56
2023-04-21T13:11:53.738Z,33.37
2023-04-21T13:14:21.675Z,33.71
2023-04-21T13:16:49.928Z,34.08
2023-04-21T13:19:19.474Z,33.67
2023-04-21T13:21:48.299Z,34.38
2023-04-21T13:24:16.412Z,35.14
2023-04-21T13:26:44.387Z,35.86
2023-04-21T13:29:12.415Z,36.21
2023-04-21T13:31:40.694Z,36.29
2023-04-21T13:34:09.242Z,36.61
2023-04-21T13:36:38.670Z,36.56
2023-04-21T13:39:09.899Z,36.24
2023-04-21T13:41:38.087Z,35.98
2023-04-21T13:44:06.394Z,35.70
2023-04-21T13:46:34.563Z,35.51
2023-04-21T13:49:02.884Z,35.33
2023-04-21T13:51:32.245Z,35.49
2023-04-21T13:54:01.808Z,35.08
2023-04-21T13:56:29.889Z,35.01
2023-04-21T13:58:59.444Z,34.78
2023-04-21T14:01:27.493Z,34.84
2023-04-21T14:03:56.924Z,34.64
2023-04-21T14:06:25.180Z,34.54
2023-04-21T14:08:53.359Z,34.78
2023-04-21T14:11:22.833Z,34.72
2023-04-21T14:14:04.860Z,34.24
2023-04-21T14:16:36.052Z,34.37
2023-04-21T14:19:04.109Z,34.57
2023-04-21T14:21:32.434Z,34.47
2023-04-21T14:24:00.440Z,34.36
2023-04-21T14:26:29.920Z,34.05
2023-04-21T14:28:59.765Z,34.09
2023-04-21T14:31:27.882Z,33.97
2023-04-21T14:33:56.077Z,34.19
2023-04-21T14:36:24.189Z,35.02
2023-04-21T14:38:52.270Z,34.98
2023-04-21T14:41:20.391Z,34.44
2023-04-21T14:43:53.839Z,34.96
2023-04-21T14:46:22.012Z,34.50
2023-04-21T14:48:50.009Z,34.33
2023-04-21T14:51:19.012Z,34.31
2023-04-21T14:53:47.329Z,34.16
2023-04-21T14:56:15.950Z,34.13
2023-04-21T14:58:43.951Z,34.16
2023-04-21T15:01:13.362Z,33.93
2023-04-21T15:03:41.690Z,33.52
2023-04-21T15:06:09.817Z,33.32
2023-04-21T15:08:37.923Z,33.21
2023-04-21T15:11:06.366Z,33.06
2023-04-21T15:13:34.347Z,32.82
2023-04-21T15:16:02.493Z,32.84
2023-04-21T15:18:31.978Z,32.72
2023-04-21T15:20:59.939Z,32.74
2023-04-21T15:23:29.217Z,32.69
2023-04-21T15:25:58.140Z,32.68
2023-04-21T15:28:26.163Z,32.43
2023-04-21T15:30:54.590Z,32.41
2023-04-21T15:33:22.657Z,32.38
2023-04-21T15:35:52.805Z,32.44
2023-04-21T15:38:21.205Z,32.21
2023-04-21T15:41:00.146Z,32.31
2023-04-21T15:43:28.911Z,32.34
2023-04-21T15:45:56.976Z,32.55
2023-04-21T15:48:25.076Z,32.41
2023-04-21T15:50:54.469Z,32.34
2023-04-21T15:53:22.530Z,32.71
2023-04-21T15:55:52.100Z,32.48
2023-04-21T15:58:22.278Z,32.42
2023-04-21T16:00:50.376Z,32.58
2023-04-21T16:03:18.574Z,32.41
2023-04-21T16:05:47.761Z,32.39
2023-04-21T16:08:17.478Z,32.42
2023-04-21T16:10:45.520Z,32.82
2023-04-21T16:13:13.597Z,32.41
2023-04-21T16:15:42.269Z,32.50
2023-04-21T16:18:10.445Z,32.78
2023-04-21T16:20:38.843Z,32.75
2023-04-21T16:23:07.022Z,32.78
2023-04-21T16:25:36.578Z,32.81
2023-04-21T16:28:06.392Z,32.52
2023-04-21T16:30:35.230Z,32.52
2023-04-21T16:33:03.451Z,32.53
2023-04-21T16:35:31.604Z,32.69
2023-04-21T16:37:59.782Z,32.83
2023-04-21T16:40:28.008Z,32.65
2023-04-21T16:43:03.288Z,32.64
2023-04-21T16:45:32.764Z,32.95
2023-04-21T16:48:00.946Z,32.76
2023-04-21T16:50:29.025Z,32.83
2023-04-21T16:52:57.002Z,32.59
2023-04-21T16:55:24.985Z,32.70
2023-04-21T16:57:53.070Z,32.80
2023-04-21T17:00:22.645Z,32.62
2023-04-21T17:02:50.788Z,32.81
2023-04-21T17:05:18.954Z,32.98
2023-04-21T17:07:48.205Z,32.82
2023-04-21T17:10:16.364Z,32.74
2023-04-21T17:12:44.380Z,32.57
2023-04-21T17:15:13.317Z,32.60
2023-04-21T17:17:43.735Z,32.68
2023-04-21T17:20:12.997Z,32.84
2023-04-21T17:22:41.439Z,33.00
2023-04-21T17:25:10.224Z,32.74
2023-04-21T17:27:38.759Z,32.56
2023-04-21T17:30:07.896Z,32.96
2023-04-21T17:32:36.055Z,32.75
2023-04-21T17:35:11.934Z,32.75
2023-04-21T17:37:42.580Z,32.97
2023-04-21T17:40:11.438Z,32.85
2023-04-21T17:42:40.448Z,32.59
2023-04-21T17:45:09.450Z,32.88
2023-04-21T17:47:37.543Z,32.83
2023-04-21T17:50:06.427Z,32.72
2023-04-21T17:52:35.909Z,32.85
2023-04-21T17:55:04.165Z,32.76
2023-04-21T17:57:32.164Z,32.66
2023-04-21T18:00:00.662Z,32.81
2023-04-21T18:02:28.832Z,32.74
2023-04-21T18:04:57.182Z,32.71
2023-04-21T18:07:25.337Z,32.93
2023-04-21T18:09:54.739Z,32.77
2023-04-21T18:12:22.742Z,33.06
2023-04-21T18:14:51.383Z,32.84
2023-04-21T18:17:19.497Z,33.05
2023-04-21T18:19:47.461Z,32.77
2023-04-21T18:22:15.398Z,32.74
2023-04-21T18:24:43.277Z,32.67
2023-04-21T18:27:13.935Z,32.71
2023-04-21T18:29:41.906Z,32.93
2023-04-21T18:32:09.937Z,32.87
2023-04-21T18:34:38.673Z,32.83
2023-04-21T18:37:06.997Z,32.69
2023-04-21T18:39:34.945Z,32.88
2023-04-21T18:42:03.026Z,33.00
2023-04-21T18:44:32.637Z,33.03
2023-04-21T18:47:00.735Z,32.73
2023-04-21T18:49:28.783Z,32.74
2023-04-21T18:51:56.854Z,33.02
2023-04-21T18:54:24.929Z,32.64
2023-04-21T18:56:53.026Z,32.73
2023-04-21T18:59:22.256Z,32.98
2023-04-21T19:01:51.783Z,32.91
2023-04-21T19:04:20.070Z,32.61
2023-04-21T19:06:48.389Z,32.65
2023-04-21T19:09:18.074Z,32.81
2023-04-21T19:11:46.049Z,32.68
2023-04-21T19:14:14.127Z,32.73
2023-04-21T19:16:42.272Z,33.12
2023-04-21T19:19:12.302Z,32.99
2023-04-21T19:21:40.497Z,33.12
2023-04-21T19:24:08.454Z,33.02
2023-04-21T19:26:36.468Z,33.06
2023-04-21T19:29:04.968Z,32.94
2023-04-21T19:31:33.038Z,33.05
2023-04-21T19:34:01.084Z,32.88
2023-04-21T19:36:31.323Z,33.29
2023-04-21T19:38:59.401Z,33.32
2023-04-21T19:41:27.399Z,32.99
2023-04-21T19:43:55.516Z,33.33
2023-04-21T19:46:23.611Z,33.21
2023-04-21T19:48:51.729Z,33.13
2023-04-21T19:51:21.782Z,33.09
2023-04-21T19:54:03.089Z,33.33
2023-04-21T19:56:36.807Z,33.18
2023-04-21T19:59:05.791Z,33.33
2023-04-21T20:01:33.851Z,33.48
2023-04-21T20:04:02.156Z,33.20
2023-04-21T20:06:30.650Z,33.15
2023-04-21T20:09:00.166Z,33.27
2023-04-21T20:11:29.316Z,33.27
2023-04-21T20:13:57.460Z,33.37
2023-04-21T20:16:26.498Z,33.61
2023-04-21T20:18:55.640Z,33.20
2023-04-21T20:21:23.807Z,33.40
2023-04-21T20:23:51.779Z,33.69
2023-04-21T20:26:21.534Z,33.34
2023-04-21T20:28:49.647Z,33.46
2023-04-21T20:31:19.093Z,33.59
2023-04-21T20:33:47.429Z,33.67
2023-04-21T20:36:15.510Z,33.81
2023-04-21T20:38:46.497Z,33.48
2023-04-21T20:41:14.672Z,33.67
2023-04-21T20:43:44.161Z,33.91
2023-04-21T20:46:16.677Z,34.03
2023-04-21T20:48:44.809Z,33.73
2023-04-21T20:51:13.517Z,33.60
2023-04-21T20:53:41.616Z,33.72
2023-04-21T20:56:09.607Z,33.81
2023-04-21T20:58:37.577Z,34.00
2023-04-21T21:01:07.084Z,33.72
2023-04-21T21:03:35.472Z,33.89
2023-04-21T21:06:03.835Z,33.70
2023-04-21T21:08:31.813Z,33.74
2023-04-21T21:10:59.738Z,33.64
2023-04-21T21:13:27.715Z,33.57
2023-04-21T21:15:55.848Z,33.85
2023-04-21T21:18:25.318Z,33.46
2023-04-21T21:20:53.331Z,33.89
2023-04-21T21:23:21.423Z,33.57
2023-04-21T21:25:49.442Z,33.73
2023-04-21T21:28:17.777Z,33.45
2023-04-21T21:30:45.753Z,33.62
2023-04-21T21:33:13.863Z,33.86
2023-04-21T21:35:43.312Z,33.51
2023-04-21T21:38:11.402Z,33.47
2023-04-21T21:40:39.420Z,33.90
2023-04-21T21:43:07.563Z,33.63
2023-04-21T21:45:35.601Z,33.87
2023-04-21T21:48:03.825Z,33.62
2023-04-21T21:50:31.897Z,33.67
2023-04-21T21:53:01.393Z,33.57
2023-04-21T21:55:29.503Z,33.59
2023-04-21T21:57:57.483Z,33.46
2023-04-21T22:00:27.090Z,33.84
2023-04-21T22:02:56.564Z,33.78
2023-04-21T22:05:24.586Z,33.80
2023-04-21T22:08:04.397Z,33.86
2023-04-21T22:10:44.765Z,33.45
2023-04-21T22:13:18.934Z,33.63
2023-04-21T22:15:49.736Z,33.80
2023-04-21T22:18:23.538Z,33.47
2023-04-21T22:20:57.232Z,33.75
2023-04-21T22:23:25.708Z,33.88
2023-04-21T22:26:03.922Z,33.59
2023-04-21T22:28:36.635Z,33.74
2023-04-21T22:31:10.423Z,33.56
2023-04-21T22:33:42.517Z,33.67
2023-04-21T22:36:14.897Z,33.91
2023-04-21T22:38:49.446Z,33.82
2023-04-21T22:41:21.935Z,34.04
2023-04-21T22:43:53.543Z,33.86
2023-04-21T22:46:26.330Z,33.95
2023-04-21T22:48:58.333Z,33.88
2023-04-21T22:51:35.794Z,33.77
2023-04-21T22:54:07.069Z,33.83
2023-04-21T22:56:41.572Z,33.94
2023-04-21T22:59:16.613Z,33.99
2023-04-21T23:01:47.762Z,33.84
2023-04-21T23:04:19.995Z,33.88
2023-04-21T23:06:52.056Z,33.85
2023-04-21T23:09:23.197Z,33.93
2023-04-21T23:11:57.416Z,33.70
2023-04-21T23:14:36.122Z,33.65
2023-04-21T23:17:08.551Z,33.81
2023-04-21T23:19:39.983Z,33.95
2023-04-21T23:22:10.188Z,33.72
2023-04-21T23:24:44.292Z,34.05
2023-04-21T23:27:27.187Z,33.74
2023-04-21T23:29:58.977Z,33.83
2023-04-21T23:32:29.297Z,33.94
2023-04-21T23:35:02.774Z,34.00
2023-04-21T23:37:34.376Z,33.89
2023-04-21T23:40:02.671Z,34.28
2023-04-21T23:42:38.405Z,33.84
2023-04-21T23:45:08.303Z,34.34
2023-04-21T23:47:37.634Z,33.94
2023-04-21T23:50:11.782Z,34.21
2023-04-21T23:52:46.774Z,34.01
2023-04-21T23:55:21.015Z,33.97
2023-04-21T23:57:51.826Z,34.06
